Hauptseite
METAR-TAF:

METAR-TAF

Flughäfen :

Kosrae, Mikronesien

Flughafen Kosrae

Breite: 05-21N, Länge: 162-57E, Höhe: 3 m

Beobachtung

Neuester Wetterbericht von vor 12 Stunden und 15 Minuten, um 23:50 UTC
Wind 7 kt aus Süd/Südost
Temperatur 27°C
Luftfeuchtigkeit 84%
Luftdruck 1011 hPa
Sichtweite: 16.1 km
Aufgelockert bewölkt in der Höhe von 1600 ft
Durchbrochene Bewölkung in der Höhe von 13000 ft
Geschlossene Wolkendecke in der Höhe von 30000 ft

METAR: PTSA 212350Z 16007KT 10SM SCT016 BKN130 OVC300 27/24 A2986 RMK LAST

Zeit: 23:05 (12:05 UTC)

Prognose

Neuester Wetterbericht von vor 11 Stunden und 31 Minuten, um 00:34 UTC
Gültige Prognose vom 22 um 01 UTC bis 22 um 24 UTC
Wind 8 kt aus Süd/Südost
Sichtweite: 10 km
Aufgelockert bewölkt in der Höhe von 1600 ft
Durchbrochene Bewölkung in der Höhe von 14000 ft
Schauer in der Nähe

TAF: PTSA 220034Z 2201/2224 16008KT P6SM VCSH SCT016 BKN140

Wetterbeobachtungen und Prognosen von mehr als 4000 Flughäfen (METAR und TAF Bericht).

Die verfügbaren Stationen werden durch gelbe und rote Markierungen auf der Karte dargestellt.

Führen Sie die Maus auf sie, um den Namen der Station zu sehen.

Darauf klicken, um die Beobachtung von Wetterbeobachtungen und Prognosen zu sehen.

Um die Karte zu ändern : klicken Sie auf den grünen Tasten mit einem schwarzen Kreuz Zum Vergrößern, auf den grünen Button mit einem Gedankenstrich zu verkleinern, oder auf die grünen Pfeile für benachbarte Karten.


METAR-TAF: